createdAt,value
2023-02-14T00:01:13.541Z,2.37
2023-02-14T00:03:45.656Z,2.35
2023-02-14T00:06:17.628Z,2.39
2023-02-14T00:08:50.685Z,2.34
2023-02-14T00:11:22.737Z,2.32
2023-02-14T00:14:12.723Z,2.36
2023-02-14T00:16:44.956Z,2.39
2023-02-14T00:19:19.734Z,2.39
2023-02-14T00:21:52.114Z,2.38
2023-02-14T00:24:27.089Z,2.43
2023-02-14T00:26:58.994Z,2.46
2023-02-14T00:29:32.762Z,2.42
2023-02-14T00:32:06.188Z,2.52
2023-02-14T00:34:38.107Z,2.48
2023-02-14T00:37:10.139Z,2.40
2023-02-14T00:39:42.281Z,2.36
2023-02-14T00:42:16.970Z,2.36
2023-02-14T00:44:50.068Z,2.35
2023-02-14T00:47:22.026Z,2.35
2023-02-14T00:49:54.060Z,2.34
2023-02-14T00:52:26.105Z,2.34
2023-02-14T00:54:58.353Z,2.39
2023-02-14T00:57:30.557Z,2.42
2023-02-14T01:00:02.762Z,2.42
2023-02-14T01:02:34.778Z,2.45
2023-02-14T01:05:07.220Z,2.47
2023-02-14T01:07:40.691Z,2.44
2023-02-14T01:10:14.367Z,2.40
2023-02-14T01:12:46.585Z,2.41
2023-02-14T01:15:18.627Z,2.40
2023-02-14T01:18:08.411Z,2.34
2023-02-14T01:20:40.785Z,2.31
2023-02-14T01:23:13.141Z,2.28
2023-02-14T01:25:45.896Z,2.31
2023-02-14T01:28:17.948Z,2.31
2023-02-14T01:30:51.489Z,2.20
2023-02-14T01:33:23.539Z,2.16
2023-02-14T01:35:55.782Z,2.13
2023-02-14T01:38:28.228Z,2.17
2023-02-14T01:41:00.850Z,2.11
2023-02-14T01:43:36.302Z,2.12
2023-02-14T01:46:09.367Z,2.12
2023-02-14T01:48:41.501Z,2.16
2023-02-14T01:51:16.311Z,2.12
2023-02-14T01:53:49.161Z,2.15
2023-02-14T01:56:24.398Z,2.15
2023-02-14T01:59:00.169Z,2.18
2023-02-14T02:01:32.455Z,2.09
2023-02-14T02:04:13.795Z,2.10
2023-02-14T02:06:48.991Z,2.13
2023-02-14T02:09:35.528Z,2.00
2023-02-14T02:12:07.577Z,1.91
2023-02-14T02:14:43.065Z,1.96
2023-02-14T02:17:35.701Z,1.89
2023-02-14T02:20:13.546Z,1.84
2023-02-14T02:23:11.126Z,1.80
2023-02-14T02:26:18.237Z,1.81
2023-02-14T02:28:59.139Z,1.83
2023-02-14T02:32:03.594Z,1.86
2023-02-14T02:34:43.822Z,1.84
2023-02-14T02:37:27.290Z,2.00
2023-02-14T02:40:07.954Z,1.89
2023-02-14T02:42:49.068Z,1.94
2023-02-14T02:45:40.102Z,1.95
2023-02-14T02:48:15.636Z,1.98
2023-02-14T02:51:08.768Z,2.02
2023-02-14T02:53:49.413Z,2.05
2023-02-14T02:56:45.006Z,2.04
2023-02-14T02:59:26.210Z,2.07
2023-02-14T03:02:14.594Z,2.07
2023-02-14T03:04:56.435Z,2.10
2023-02-14T03:07:37.391Z,2.11
2023-02-14T03:10:16.629Z,2.10
2023-02-14T03:13:06.676Z,2.17
2023-02-14T03:15:50.311Z,2.17
2023-02-14T03:19:11.348Z,2.26
2023-02-14T03:21:55.328Z,2.29
2023-02-14T03:24:34.444Z,2.22
2023-02-14T03:27:15.515Z,2.24
2023-02-14T03:29:53.269Z,2.31
2023-02-14T03:32:52.167Z,2.27
2023-02-14T03:35:27.794Z,2.30
2023-02-14T03:38:17.931Z,2.35
2023-02-14T03:40:57.506Z,2.32
2023-02-14T03:43:38.500Z,2.33
2023-02-14T03:46:19.330Z,2.33
2023-02-14T03:48:53.894Z,2.39
2023-02-14T03:51:27.843Z,2.35
2023-02-14T03:54:00.810Z,2.35
2023-02-14T03:56:56.779Z,2.32
2023-02-14T03:59:30.411Z,2.29
2023-02-14T04:02:23.483Z,2.15
2023-02-14T04:04:57.769Z,2.09
2023-02-14T04:07:29.247Z,1.97
2023-02-14T04:10:01.941Z,2.05
2023-02-14T04:12:38.050Z,1.87
2023-02-14T04:15:08.191Z,1.81
2023-02-14T04:17:58.273Z,1.74
2023-02-14T04:20:30.627Z,1.67
2023-02-14T04:23:03.677Z,1.62
2023-02-14T04:25:36.525Z,1.53
2023-02-14T04:28:08.839Z,1.45
2023-02-14T04:30:40.904Z,1.38
2023-02-14T04:33:12.960Z,1.34
2023-02-14T04:35:44.885Z,1.38
2023-02-14T04:38:17.182Z,1.41
2023-02-14T04:40:52.088Z,1.48
2023-02-14T04:43:24.549Z,1.49
2023-02-14T04:45:57.422Z,1.51
2023-02-14T04:48:30.038Z,1.53
2023-02-14T04:51:03.376Z,1.61
2023-02-14T04:53:40.219Z,1.69
2023-02-14T04:56:12.847Z,1.76
2023-02-14T04:58:45.187Z,1.95
2023-02-14T05:01:17.296Z,1.88
2023-02-14T05:03:50.049Z,1.84
2023-02-14T05:06:22.708Z,1.83
2023-02-14T05:08:55.180Z,1.85
2023-02-14T05:11:29.709Z,1.92
2023-02-14T05:14:01.681Z,2.01
2023-02-14T05:16:33.816Z,1.93
2023-02-14T05:19:06.444Z,1.94
2023-02-14T05:21:39.134Z,2.03
2023-02-14T05:24:11.311Z,2.15
2023-02-14T05:26:43.916Z,2.06
2023-02-14T05:29:34.449Z,2.06
2023-02-14T05:32:07.261Z,2.14
2023-02-14T05:34:39.552Z,2.17
2023-02-14T05:37:11.870Z,2.14
2023-02-14T05:39:44.516Z,2.26
2023-02-14T05:42:17.083Z,2.29
2023-02-14T05:44:49.768Z,2.28
2023-02-14T05:47:21.914Z,2.31
2023-02-14T05:49:54.290Z,2.39
2023-02-14T05:52:26.915Z,2.37
2023-02-14T05:54:59.302Z,2.47
2023-02-14T05:57:33.347Z,2.47
2023-02-14T06:00:07.192Z,2.56
2023-02-14T06:02:41.495Z,2.62
2023-02-14T06:05:15.148Z,2.65
2023-02-14T06:07:51.190Z,2.70
2023-02-14T06:10:25.416Z,2.71
2023-02-14T06:12:57.492Z,2.71
2023-02-14T06:15:29.546Z,2.74
2023-02-14T06:18:02.251Z,2.83
2023-02-14T06:20:34.762Z,2.79
2023-02-14T06:23:07.189Z,2.80
2023-02-14T06:25:39.863Z,2.79
2023-02-14T06:28:12.086Z,2.77
2023-02-14T06:30:44.539Z,2.78
2023-02-14T06:33:19.012Z,2.69
2023-02-14T06:35:51.537Z,2.69
2023-02-14T06:38:23.944Z,2.71
2023-02-14T06:41:00.629Z,2.76
2023-02-14T06:43:33.611Z,2.83
2023-02-14T06:46:05.978Z,2.83
2023-02-14T06:48:38.349Z,2.90
2023-02-14T06:51:11.181Z,2.90
2023-02-14T06:53:43.457Z,2.97
2023-02-14T06:56:16.265Z,2.95
2023-02-14T06:58:48.913Z,2.90
2023-02-14T07:01:21.200Z,2.89
2023-02-14T07:03:54.066Z,2.94
2023-02-14T07:06:26.387Z,2.99
2023-02-14T07:08:58.488Z,2.98
2023-02-14T07:11:30.471Z,2.95
2023-02-14T07:14:02.895Z,3.00
2023-02-14T07:16:35.536Z,3.07
2023-02-14T07:19:08.333Z,3.16
2023-02-14T07:21:40.695Z,3.16
2023-02-14T07:24:12.953Z,3.24
2023-02-14T07:26:45.002Z,3.26
2023-02-14T07:29:17.540Z,3.32
2023-02-14T07:31:50.208Z,3.37
2023-02-14T07:34:22.601Z,3.45
2023-02-14T07:36:54.912Z,3.52
2023-02-14T07:39:27.747Z,3.61
2023-02-14T07:42:00.457Z,3.73
2023-02-14T07:44:33.033Z,3.84
2023-02-14T07:47:05.551Z,3.92
2023-02-14T07:49:38.521Z,4.08
2023-02-14T07:52:11.149Z,4.28
2023-02-14T07:54:43.476Z,4.25
2023-02-14T07:57:16.039Z,4.40
2023-02-14T07:59:48.772Z,4.39
2023-02-14T08:02:21.325Z,4.41
2023-02-14T08:04:53.281Z,4.52
2023-02-14T08:07:25.986Z,4.61
2023-02-14T08:09:58.412Z,4.64
2023-02-14T08:12:48.199Z,4.79
2023-02-14T08:15:38.044Z,4.76
2023-02-14T08:18:10.753Z,4.78
2023-02-14T08:20:44.145Z,4.73
2023-02-14T08:23:17.092Z,4.58
2023-02-14T08:25:54.021Z,4.45
2023-02-14T08:28:27.117Z,4.16
2023-02-14T08:30:59.503Z,4.08
2023-02-14T08:33:31.909Z,3.99
2023-02-14T08:36:04.291Z,3.95
2023-02-14T08:38:36.444Z,4.19
2023-02-14T08:41:09.554Z,4.12
2023-02-14T08:43:41.771Z,4.09
2023-02-14T08:46:15.335Z,4.14
2023-02-14T08:48:47.798Z,4.15
2023-02-14T08:51:19.904Z,4.28
2023-02-14T08:53:53.291Z,4.43
2023-02-14T08:56:25.422Z,4.31
2023-02-14T08:58:57.608Z,4.40
2023-02-14T09:01:29.770Z,4.42
2023-02-14T09:04:02.545Z,4.65
2023-02-14T09:06:36.416Z,4.80
2023-02-14T09:09:08.940Z,4.97
2023-02-14T09:11:40.936Z,4.91
2023-02-14T09:14:13.243Z,4.84
2023-02-14T09:16:45.961Z,4.75
2023-02-14T09:19:18.852Z,4.75
2023-02-14T09:21:51.295Z,4.89
2023-02-14T09:24:24.009Z,4.81
2023-02-14T09:27:00.915Z,4.70
2023-02-14T09:29:34.568Z,4.73
2023-02-14T09:32:07.231Z,4.67
2023-02-14T09:34:39.553Z,4.75
2023-02-14T09:37:15.629Z,4.78
2023-02-14T09:39:48.053Z,4.77
2023-02-14T09:42:38.531Z,4.66
2023-02-14T09:45:22.340Z,4.64
2023-02-14T09:47:57.433Z,4.68
2023-02-14T09:50:41.778Z,4.68
2023-02-14T09:53:35.089Z,4.52
2023-02-14T09:56:28.049Z,4.52
2023-02-14T09:59:23.016Z,4.48
2023-02-14T10:02:00.970Z,4.56
2023-02-14T10:04:44.949Z,4.60
2023-02-14T10:07:34.988Z,4.50
2023-02-14T10:10:22.207Z,4.49
2023-02-14T10:13:22.489Z,4.48
2023-02-14T10:16:00.192Z,4.29
2023-02-14T10:18:35.474Z,4.12
2023-02-14T10:21:11.994Z,3.96
2023-02-14T10:23:49.910Z,3.78
2023-02-14T10:26:41.355Z,3.77
2023-02-14T10:29:16.607Z,3.77
2023-02-14T10:32:00.781Z,3.70
2023-02-14T10:34:53.091Z,3.82
2023-02-14T10:37:40.401Z,3.97
2023-02-14T10:40:17.429Z,4.11
2023-02-14T10:42:52.647Z,4.16
2023-02-14T10:45:30.606Z,4.26
2023-02-14T10:48:08.795Z,4.41
2023-02-14T10:50:52.371Z,4.34
2023-02-14T10:53:43.639Z,4.30
2023-02-14T10:56:23.874Z,4.23
2023-02-14T10:58:57.891Z,4.27
2023-02-14T11:01:31.023Z,4.20
2023-02-14T11:04:07.809Z,4.08
2023-02-14T11:06:41.187Z,4.09
2023-02-14T11:09:13.499Z,4.08
2023-02-14T11:12:01.833Z,4.30
2023-02-14T11:14:40.244Z,4.21
2023-02-14T11:17:32.815Z,4.17
2023-02-14T11:20:09.681Z,4.10
2023-02-14T11:22:42.076Z,3.92
2023-02-14T11:25:26.071Z,3.88
2023-02-14T11:28:07.046Z,3.72
2023-02-14T11:30:45.912Z,3.70
2023-02-14T11:33:41.537Z,3.81
2023-02-14T11:36:18.325Z,3.93
2023-02-14T11:39:09.204Z,4.09
2023-02-14T11:41:53.306Z,4.30
2023-02-14T11:44:28.664Z,4.21
2023-02-14T11:47:18.580Z,4.37
2023-02-14T11:50:02.173Z,4.33
2023-02-14T11:52:36.627Z,4.33
2023-02-14T11:55:08.261Z,4.27
2023-02-14T11:57:41.589Z,4.31
2023-02-14T12:00:17.260Z,4.23
2023-02-14T12:02:52.015Z,4.17
2023-02-14T12:05:40.653Z,4.19
2023-02-14T12:08:13.523Z,4.11
2023-02-14T12:10:47.677Z,4.08
2023-02-14T12:13:22.909Z,4.16
2023-02-14T12:15:57.313Z,4.22
2023-02-14T12:18:50.601Z,4.17
2023-02-14T12:21:26.245Z,4.20
2023-02-14T12:24:04.427Z,4.19
2023-02-14T12:26:49.773Z,4.26
2023-02-14T12:29:26.574Z,4.37
2023-02-14T12:32:01.968Z,4.40
2023-02-14T12:34:34.320Z,4.53
2023-02-14T12:37:33.286Z,4.71
2023-02-14T12:40:11.685Z,4.85
2023-02-14T12:43:09.471Z,4.72
2023-02-14T12:46:02.486Z,4.76
2023-02-14T12:48:47.404Z,4.52
2023-02-14T12:51:43.505Z,4.33
2023-02-14T12:54:35.070Z,4.38
2023-02-14T12:57:28.133Z,4.14
2023-02-14T13:00:17.778Z,4.06
2023-02-14T13:03:15.671Z,3.87
2023-02-14T13:06:15.195Z,3.82
2023-02-14T13:09:08.393Z,3.77
2023-02-14T13:11:58.903Z,3.79
2023-02-14T13:14:48.759Z,3.91
2023-02-14T13:17:27.813Z,4.07
2023-02-14T13:20:03.641Z,4.21
2023-02-14T13:22:37.217Z,4.26
2023-02-14T13:25:18.301Z,4.29
2023-02-14T13:27:52.194Z,4.49
2023-02-14T13:30:32.308Z,4.55
2023-02-14T13:33:32.526Z,4.46
2023-02-14T13:36:08.028Z,4.29
2023-02-14T13:38:45.894Z,4.17
2023-02-14T13:41:19.899Z,4.00
2023-02-14T13:43:58.016Z,3.86
2023-02-14T13:46:39.046Z,3.75
2023-02-14T13:49:23.304Z,3.60
2023-02-14T13:51:59.131Z,3.53
2023-02-14T13:54:42.876Z,3.43
2023-02-14T13:57:35.862Z,3.37
2023-02-14T14:00:19.907Z,3.34
2023-02-14T14:02:53.984Z,3.24
2023-02-14T14:05:36.565Z,3.16
2023-02-14T14:08:28.766Z,3.14
2023-02-14T14:11:12.927Z,3.13
2023-02-14T14:14:07.492Z,3.08
2023-02-14T14:16:41.622Z,3.17
2023-02-14T14:19:22.343Z,2.99
2023-02-14T14:22:15.913Z,2.90
2023-02-14T14:24:57.209Z,2.81
2023-02-14T14:27:35.358Z,2.81
2023-02-14T14:30:12.058Z,2.72
2023-02-14T14:32:45.690Z,2.69
2023-02-14T14:35:20.893Z,2.71
2023-02-14T14:37:59.981Z,2.71
2023-02-14T14:40:39.372Z,2.75
2023-02-14T14:43:18.185Z,2.69
2023-02-14T14:45:53.454Z,2.70
2023-02-14T14:48:31.694Z,2.69
2023-02-14T14:51:07.665Z,2.65
2023-02-14T14:53:45.671Z,2.63
2023-02-14T14:56:31.706Z,2.61
2023-02-14T14:59:25.209Z,2.56
2023-02-14T15:01:57.566Z,2.56
2023-02-14T15:04:32.485Z,2.55
2023-02-14T15:07:28.214Z,2.57
2023-02-14T15:10:02.337Z,2.54
2023-02-14T15:12:53.433Z,2.52
2023-02-14T15:15:26.030Z,2.49
2023-02-14T15:17:58.808Z,2.50
2023-02-14T15:20:30.865Z,2.43
2023-02-14T15:23:03.961Z,2.41
2023-02-14T15:25:38.959Z,2.43
2023-02-14T15:28:14.260Z,2.43
2023-02-14T15:30:49.402Z,2.40
2023-02-14T15:33:22.793Z,2.34
2023-02-14T15:35:56.312Z,2.30
2023-02-14T15:38:30.503Z,2.33
2023-02-14T15:41:02.892Z,2.30
2023-02-14T15:43:40.220Z,2.40
2023-02-14T15:46:30.056Z,2.28
2023-02-14T15:49:04.226Z,2.24
2023-02-14T15:51:37.036Z,2.23
2023-02-14T15:54:24.663Z,2.15
2023-02-14T15:56:58.558Z,2.01
2023-02-14T15:59:33.669Z,1.94
2023-02-14T16:02:14.810Z,1.89
2023-02-14T16:04:48.163Z,1.85
2023-02-14T16:07:30.514Z,1.88
2023-02-14T16:10:30.429Z,1.88
2023-02-14T16:13:17.740Z,1.88
2023-02-14T16:16:11.417Z,1.91
2023-02-14T16:18:48.474Z,1.96
2023-02-14T16:21:32.458Z,1.96
2023-02-14T16:24:13.666Z,1.94
2023-02-14T16:26:47.704Z,1.91
2023-02-14T16:29:23.464Z,1.94
2023-02-14T16:32:15.809Z,1.99
2023-02-14T16:34:33.695Z,1.93
2023-02-14T16:37:21.195Z,1.97
2023-02-14T16:39:55.840Z,2.00
2023-02-14T16:42:28.082Z,2.16
2023-02-14T16:45:00.450Z,2.02
2023-02-14T16:47:33.354Z,1.94
2023-02-14T16:50:06.349Z,1.96
2023-02-14T16:52:39.451Z,1.97
2023-02-14T16:55:20.767Z,1.96
2023-02-14T16:57:54.338Z,1.95
2023-02-14T17:00:28.425Z,2.04
2023-02-14T17:03:08.208Z,2.05
2023-02-14T17:05:41.804Z,2.04
2023-02-14T17:08:16.614Z,2.07
2023-02-14T17:10:49.388Z,2.04
2023-02-14T17:13:25.109Z,2.06
2023-02-14T17:15:57.959Z,2.08
2023-02-14T17:18:33.385Z,2.15
2023-02-14T17:21:07.093Z,2.07
2023-02-14T17:23:39.308Z,2.09
2023-02-14T17:26:14.553Z,2.08
2023-02-14T17:28:47.546Z,2.01
2023-02-14T17:31:21.215Z,1.97
2023-02-14T17:33:53.784Z,1.99
2023-02-14T17:36:26.615Z,1.95
2023-02-14T17:38:59.697Z,1.99
2023-02-14T17:41:32.479Z,1.94
2023-02-14T17:44:05.881Z,1.93
2023-02-14T17:46:38.309Z,2.07
2023-02-14T17:49:10.940Z,2.01
2023-02-14T17:51:43.464Z,2.15
2023-02-14T17:54:16.662Z,2.16
2023-02-14T17:56:49.065Z,2.03
2023-02-14T17:59:22.898Z,1.94
2023-02-14T18:01:55.340Z,1.99
2023-02-14T18:04:29.886Z,1.95
2023-02-14T18:07:02.783Z,1.95
2023-02-14T18:09:36.261Z,1.85
2023-02-14T18:12:14.630Z,1.93
2023-02-14T18:14:44.617Z,1.83
2023-02-14T18:17:17.000Z,1.88
2023-02-14T18:19:49.692Z,1.83
2023-02-14T18:22:22.137Z,1.82
2023-02-14T18:24:55.931Z,1.83
2023-02-14T18:27:29.136Z,1.95
2023-02-14T18:30:01.826Z,1.95
2023-02-14T18:32:34.481Z,1.75
2023-02-14T18:35:06.570Z,1.66
2023-02-14T18:37:39.245Z,1.63
2023-02-14T18:40:14.159Z,1.72
2023-02-14T18:42:46.134Z,1.56
2023-02-14T18:45:18.999Z,1.46
2023-02-14T18:47:51.526Z,1.52
2023-02-14T18:50:24.332Z,1.42
2023-02-14T18:52:56.532Z,1.44
2023-02-14T18:55:29.069Z,1.35
2023-02-14T18:58:01.192Z,1.36
2023-02-14T19:00:34.037Z,1.30
2023-02-14T19:03:07.894Z,1.29
2023-02-14T19:05:40.134Z,1.35
2023-02-14T19:08:12.149Z,1.29
2023-02-14T19:10:44.395Z,1.21
2023-02-14T19:13:16.736Z,1.16
2023-02-14T19:15:49.816Z,1.14
2023-02-14T19:18:23.661Z,1.09
2023-02-14T19:20:55.678Z,1.14
2023-02-14T19:23:27.925Z,1.09
2023-02-14T19:25:59.942Z,1.22
2023-02-14T19:28:32.241Z,1.16
2023-02-14T19:31:04.806Z,1.19
2023-02-14T19:33:45.471Z,1.18
2023-02-14T19:36:20.481Z,1.09
2023-02-14T19:38:54.355Z,1.08
2023-02-14T19:41:30.329Z,0.92
2023-02-14T19:44:05.158Z,0.94
2023-02-14T19:46:38.633Z,0.92
2023-02-14T19:49:15.368Z,0.98
2023-02-14T19:51:59.123Z,0.93
2023-02-14T19:54:49.050Z,0.82
2023-02-14T19:57:29.170Z,0.86
2023-02-14T20:00:02.656Z,0.81
2023-02-14T20:02:37.402Z,0.80
2023-02-14T20:05:09.826Z,0.83
2023-02-14T20:07:43.705Z,0.73
2023-02-14T20:10:17.408Z,0.83
2023-02-14T20:12:50.493Z,0.76
2023-02-14T20:15:22.668Z,0.74
2023-02-14T20:17:54.700Z,0.74
2023-02-14T20:20:26.997Z,0.61
2023-02-14T20:22:58.955Z,0.56
2023-02-14T20:25:30.948Z,0.55
2023-02-14T20:28:02.816Z,0.53
2023-02-14T20:30:34.783Z,0.55
2023-02-14T20:33:07.851Z,0.56
2023-02-14T20:35:42.764Z,0.61
2023-02-14T20:38:14.765Z,0.49
2023-02-14T20:40:46.866Z,0.48
2023-02-14T20:43:18.843Z,0.52
2023-02-14T20:45:50.865Z,0.55
2023-02-14T20:48:22.949Z,0.49
2023-02-14T20:50:54.909Z,0.42
2023-02-14T20:53:27.611Z,0.41
2023-02-14T20:56:00.110Z,0.45
2023-02-14T20:58:34.039Z,0.51
2023-02-14T21:01:17.559Z,0.46
2023-02-14T21:03:51.312Z,0.48
2023-02-14T21:06:26.178Z,0.51
2023-02-14T21:08:58.873Z,0.41
2023-02-14T21:11:31.344Z,0.46
2023-02-14T21:14:04.098Z,0.48
2023-02-14T21:16:36.251Z,0.41
2023-02-14T21:19:08.084Z,0.39
2023-02-14T21:21:41.091Z,0.40
2023-02-14T21:24:15.603Z,0.42
2023-02-14T21:26:47.725Z,0.31
2023-02-14T21:29:20.242Z,0.33
2023-02-14T21:31:52.313Z,0.34
2023-02-14T21:34:24.738Z,0.36
2023-02-14T21:36:56.721Z,0.34
2023-02-14T21:39:30.314Z,0.37
2023-02-14T21:42:02.786Z,0.29
2023-02-14T21:44:53.240Z,0.31
2023-02-14T21:47:25.675Z,0.28
2023-02-14T21:50:15.559Z,0.26
2023-02-14T21:52:48.001Z,0.28
2023-02-14T21:55:19.959Z,0.24
2023-02-14T21:57:52.228Z,0.21
2023-02-14T22:00:24.448Z,0.18
2023-02-14T22:02:56.643Z,0.18
2023-02-14T22:05:28.972Z,0.18
2023-02-14T22:08:01.102Z,0.22
2023-02-14T22:10:33.455Z,0.30
2023-02-14T22:13:05.488Z,0.21
2023-02-14T22:15:39.127Z,0.22
2023-02-14T22:18:11.569Z,0.22
2023-02-14T22:20:43.579Z,0.13
2023-02-14T22:23:15.709Z,0.12
2023-02-14T22:25:47.799Z,0.08
2023-02-14T22:28:19.794Z,0.09
2023-02-14T22:30:52.007Z,0.19
2023-02-14T22:33:24.538Z,0.12
2023-02-14T22:35:59.367Z,0.15
2023-02-14T22:38:31.970Z,0.08
2023-02-14T22:41:15.339Z,0.17
2023-02-14T22:43:47.909Z,0.17
2023-02-14T22:46:28.696Z,0.20
2023-02-14T22:49:01.015Z,0.05
2023-02-14T22:51:36.178Z,0.07
2023-02-14T22:54:12.496Z,0.10
2023-02-14T22:56:47.329Z,0.03
2023-02-14T22:59:24.287Z,0.08
2023-02-14T23:01:56.528Z,0.03
2023-02-14T23:04:32.608Z,0.02
2023-02-14T23:07:04.738Z,0.08
2023-02-14T23:09:36.786Z,0.00
2023-02-14T23:12:10.284Z,-0.05
2023-02-14T23:15:00.125Z,0.05
2023-02-14T23:17:51.557Z,-0.04
2023-02-14T23:20:41.398Z,-0.09
2023-02-14T23:23:13.317Z,0.07
2023-02-14T23:25:45.378Z,-0.06
2023-02-14T23:28:17.562Z,-0.13
2023-02-14T23:30:49.629Z,-0.07
2023-02-14T23:33:21.657Z,-0.17
2023-02-14T23:35:53.968Z,-0.05
2023-02-14T23:38:25.879Z,-0.12
2023-02-14T23:41:15.734Z,-0.15
2023-02-14T23:43:49.985Z,-0.16
2023-02-14T23:46:22.976Z,-0.17
2023-02-14T23:48:55.950Z,-0.13
2023-02-14T23:51:28.040Z,-0.05
2023-02-14T23:54:00.107Z,-0.11
2023-02-14T23:56:32.118Z,-0.13
2023-02-14T23:59:06.105Z,-0.15
